sensor_id;sensor_type;location;lat;lon;timestamp;pressure;altitude;pressure_sealevel;temperature;humidity
11349;BME280;5729;43.570;27.826;2022-10-26T00:01:28;99242.13;;;17.51;100.00
11349;BME280;5729;43.570;27.826;2022-10-26T00:03:54;99249.56;;;17.47;100.00
11349;BME280;5729;43.570;27.826;2022-10-26T00:06:22;99242.63;;;17.35;100.00
11349;BME280;5729;43.570;27.826;2022-10-26T00:08:49;99240.31;;;17.30;100.00
11349;BME280;5729;43.570;27.826;2022-10-26T00:11:17;99234.88;;;17.30;100.00
11349;BME280;5729;43.570;27.826;2022-10-26T00:13:43;99248.47;;;17.37;100.00
11349;BME280;5729;43.570;27.826;2022-10-26T00:16:12;99249.66;;;17.29;100.00
11349;BME280;5729;43.570;27.826;2022-10-26T00:18:38;99256.66;;;17.30;100.00
11349;BME280;5729;43.570;27.826;2022-10-26T00:21:05;99255.91;;;17.26;100.00
11349;BME280;5729;43.570;27.826;2022-10-26T00:23:31;99263.28;;;17.29;100.00
11349;BME280;5729;43.570;27.826;2022-10-26T00:25:57;99266.81;;;17.26;100.00
11349;BME280;5729;43.570;27.826;2022-10-26T00:28:23;99264.84;;;17.27;100.00
11349;BME280;5729;43.570;27.826;2022-10-26T00:30:49;99273.81;;;17.24;100.00
11349;BME280;5729;43.570;27.826;2022-10-26T00:33:15;99272.31;;;17.12;100.00
11349;BME280;5729;43.570;27.826;2022-10-26T00:35:40;99275.38;;;17.21;100.00
11349;BME280;5729;43.570;27.826;2022-10-26T00:38:06;99275.41;;;17.14;100.00
11349;BME280;5729;43.570;27.826;2022-10-26T00:40:31;99277.03;;;17.01;100.00
11349;BME280;5729;43.570;27.826;2022-10-26T00:42:56;99275.44;;;17.11;100.00
11349;BME280;5729;43.570;27.826;2022-10-26T00:45:25;99285.56;;;17.03;100.00
11349;BME280;5729;43.570;27.826;2022-10-26T00:48:02;99292.19;;;16.98;100.00
11349;BME280;5729;43.570;27.826;2022-10-26T00:50:36;99286.38;;;16.93;100.00
11349;BME280;5729;43.570;27.826;2022-10-26T00:53:04;99290.28;;;16.85;100.00
11349;BME280;5729;43.570;27.826;2022-10-26T00:55:33;99287.19;;;16.79;100.00
11349;BME280;5729;43.570;27.826;2022-10-26T00:58:01;99294.59;;;16.79;100.00
11349;BME280;5729;43.570;27.826;2022-10-26T01:00:28;99293.41;;;16.76;100.00
11349;BME280;5729;43.570;27.826;2022-10-26T01:02:56;99286.38;;;16.82;100.00
11349;BME280;5729;43.570;27.826;2022-10-26T01:05:23;99281.75;;;16.76;100.00
11349;BME280;5729;43.570;27.826;2022-10-26T01:07:49;99293.03;;;16.78;100.00
11349;BME280;5729;43.570;27.826;2022-10-26T01:10:15;99292.63;;;16.79;100.00
11349;BME280;5729;43.570;27.826;2022-10-26T01:12:43;99293.78;;;16.82;100.00
11349;BME280;5729;43.570;27.826;2022-10-26T01:15:09;99288.75;;;16.77;100.00
11349;BME280;5729;43.570;27.826;2022-10-26T01:17:56;99287.59;;;16.74;100.00
11349;BME280;5729;43.570;27.826;2022-10-26T01:20:49;99296.53;;;16.71;100.00
11349;BME280;5729;43.570;27.826;2022-10-26T01:26:52;99300.41;;;16.59;100.00
11349;BME280;5729;43.570;27.826;2022-10-26T01:32:26;99299.66;;;16.59;100.00
11349;BME280;5729;43.570;27.826;2022-10-26T01:35:17;99300.81;;;16.58;100.00
11349;BME280;5729;43.570;27.826;2022-10-26T01:37:56;99297.31;;;16.57;100.00
11349;BME280;5729;43.570;27.826;2022-10-26T01:40:36;99300.81;;;16.58;100.00
11349;BME280;5729;43.570;27.826;2022-10-26T01:43:07;99288.38;;;16.53;100.00
11349;BME280;5729;43.570;27.826;2022-10-26T01:45:36;99307.81;;;16.59;100.00
11349;BME280;5729;43.570;27.826;2022-10-26T01:48:05;99303.16;;;16.63;100.00
11349;BME280;5729;43.570;27.826;2022-10-26T01:50:33;99303.50;;;16.61;100.00
11349;BME280;5729;43.570;27.826;2022-10-26T01:52:59;99307.41;;;16.60;100.00
11349;BME280;5729;43.570;27.826;2022-10-26T02:00:45;99323.72;;;16.50;100.00
11349;BME280;5729;43.570;27.826;2022-10-26T02:03:23;99319.88;;;16.47;100.00
11349;BME280;5729;43.570;27.826;2022-10-26T02:06:05;99324.91;;;16.45;100.00
11349;BME280;5729;43.570;27.826;2022-10-26T02:11:36;99332.28;;;16.30;100.00
11349;BME280;5729;43.570;27.826;2022-10-26T02:14:11;99317.53;;;16.35;100.00
11349;BME280;5729;43.570;27.826;2022-10-26T02:17:41;99319.84;;;16.40;100.00
11349;BME280;5729;43.570;27.826;2022-10-26T02:19:49;99329.19;;;16.36;100.00
11349;BME280;5729;43.570;27.826;2022-10-26T02:22:24;99333.84;;;16.28;100.00
11349;BME280;5729;43.570;27.826;2022-10-26T02:24:52;99337.75;;;16.23;100.00
11349;BME280;5729;43.570;27.826;2022-10-26T02:27:21;99336.97;;;16.23;100.00
11349;BME280;5729;43.570;27.826;2022-10-26T02:29:50;99331.50;;;16.09;100.00
11349;BME280;5729;43.570;27.826;2022-10-26T02:32:18;99342.00;;;16.17;100.00
11349;BME280;5729;43.570;27.826;2022-10-26T02:34:46;99335.78;;;16.13;100.00
11349;BME280;5729;43.570;27.826;2022-10-26T02:37:15;99339.28;;;16.10;100.00
11349;BME280;5729;43.570;27.826;2022-10-26T02:39:44;99335.38;;;16.15;100.00
11349;BME280;5729;43.570;27.826;2022-10-26T02:42:12;99345.50;;;16.11;100.00
11349;BME280;5729;43.570;27.826;2022-10-26T02:44:43;99347.81;;;16.16;100.00
11349;BME280;5729;43.570;27.826;2022-10-26T02:47:10;99357.13;;;16.15;100.00
11349;BME280;5729;43.570;27.826;2022-10-26T02:49:37;99346.69;;;16.24;100.00
11349;BME280;5729;43.570;27.826;2022-10-26T02:52:11;99349.41;;;16.24;100.00
11349;BME280;5729;43.570;27.826;2022-10-26T02:55:07;99357.91;;;16.15;100.00
11349;BME280;5729;43.570;27.826;2022-10-26T02:57:37;99362.59;;;16.18;100.00
11349;BME280;5729;43.570;27.826;2022-10-26T03:00:11;99371.91;;;16.17;100.00
11349;BME280;5729;43.570;27.826;2022-10-26T03:02:38;99376.16;;;16.15;100.00
11349;BME280;5729;43.570;27.826;2022-10-26T03:05:12;99367.25;;;16.11;100.00
11349;BME280;5729;43.570;27.826;2022-10-26T03:07:39;99375.34;;;15.86;100.00
11349;BME280;5729;43.570;27.826;2022-10-26T03:10:05;99381.16;;;15.88;100.00
11349;BME280;5729;43.570;27.826;2022-10-26T03:12:31;99375.34;;;15.86;100.00
11349;BME280;5729;43.570;27.826;2022-10-26T03:14:56;99378.81;;;15.83;100.00
11349;BME280;5729;43.570;27.826;2022-10-26T03:17:22;99375.31;;;15.82;100.00
11349;BME280;5729;43.570;27.826;2022-10-26T03:19:47;99388.91;;;15.82;100.00
11349;BME280;5729;43.570;27.826;2022-10-26T03:22:13;99390.47;;;15.80;100.00
11349;BME280;5729;43.570;27.826;2022-10-26T03:24:38;99390.47;;;15.80;100.00
11349;BME280;5729;43.570;27.826;2022-10-26T03:27:03;99390.09;;;15.85;100.00
11349;BME280;5729;43.570;27.826;2022-10-26T03:29:29;99398.25;;;15.88;100.00
11349;BME280;5729;43.570;27.826;2022-10-26T03:31:54;99388.16;;;15.89;100.00
11349;BME280;5729;43.570;27.826;2022-10-26T03:34:20;99397.47;;;15.88;100.00
11349;BME280;5729;43.570;27.826;2022-10-26T03:36:46;99399.03;;;15.89;100.00
11349;BME280;5729;43.570;27.826;2022-10-26T03:39:11;99393.56;;;15.78;100.00
11349;BME280;5729;43.570;27.826;2022-10-26T03:41:37;99402.09;;;15.80;100.00
11349;BME280;5729;43.570;27.826;2022-10-26T03:44:03;99409.09;;;15.78;100.00
11349;BME280;5729;43.570;27.826;2022-10-26T03:46:28;99395.44;;;15.64;100.00
11349;BME280;5729;43.570;27.826;2022-10-26T03:48:53;99400.53;;;15.69;100.00
11349;BME280;5729;43.570;27.826;2022-10-26T03:51:19;99408.66;;;15.72;100.00
11349;BME280;5729;43.570;27.826;2022-10-26T03:53:44;99411.06;;;15.88;100.00
11349;BME280;5729;43.570;27.826;2022-10-26T03:56:10;99399.03;;;15.96;100.00
11349;BME280;5729;43.570;27.826;2022-10-26T03:58:35;99406.81;;;15.94;100.00
11349;BME280;5729;43.570;27.826;2022-10-26T04:01:01;99411.47;;;15.93;100.00
11349;BME280;5729;43.570;27.826;2022-10-26T04:03:26;99418.06;;;15.89;100.00
11349;BME280;5729;43.570;27.826;2022-10-26T04:05:52;99411.84;;;15.88;100.00
11349;BME280;5729;43.570;27.826;2022-10-26T04:08:17;99428.56;;;15.94;100.00
11349;BME280;5729;43.570;27.826;2022-10-26T04:10:44;99420.41;;;15.90;100.00
11349;BME280;5729;43.570;27.826;2022-10-26T04:13:10;99425.09;;;16.01;100.00
11349;BME280;5729;43.570;27.826;2022-10-26T04:15:36;99431.69;;;16.03;100.00
11349;BME280;5729;43.570;27.826;2022-10-26T04:18:01;99437.09;;;15.96;100.00
11349;BME280;5729;43.570;27.826;2022-10-26T04:20:29;99441.81;;;16.03;100.00
11349;BME280;5729;43.570;27.826;2022-10-26T04:22:59;99428.59;;;16.05;100.00
11349;BME280;5729;43.570;27.826;2022-10-26T04:25:25;99429.34;;;16.05;100.00
11349;BME280;5729;43.570;27.826;2022-10-26T04:27:50;99432.50;;;16.11;100.00
11349;BME280;5729;43.570;27.826;2022-10-26T04:30:17;99436.75;;;16.08;100.00
11349;BME280;5729;43.570;27.826;2022-10-26T04:32:42;99440.28;;;16.12;100.00
11349;BME280;5729;43.570;27.826;2022-10-26T04:35:07;99447.66;;;16.12;100.00
11349;BME280;5729;43.570;27.826;2022-10-26T04:37:33;99451.94;;;16.13;100.00
11349;BME280;5729;43.570;27.826;2022-10-26T04:39:58;99448.44;;;16.12;100.00
11349;BME280;5729;43.570;27.826;2022-10-26T04:42:24;99444.16;;;16.15;100.00
11349;BME280;5729;43.570;27.826;2022-10-26T04:44:49;99443.78;;;16.20;100.00
11349;BME280;5729;43.570;27.826;2022-10-26T04:47:15;99450.75;;;16.17;100.00
11349;BME280;5729;43.570;27.826;2022-10-26T04:49:40;99441.88;;;16.24;100.00
11349;BME280;5729;43.570;27.826;2022-10-26T04:52:05;99449.25;;;16.23;100.00
11349;BME280;5729;43.570;27.826;2022-10-26T04:54:31;99448.84;;;16.28;100.00
11349;BME280;5729;43.570;27.826;2022-10-26T04:56:56;99456.25;;;16.35;100.00
11349;BME280;5729;43.570;27.826;2022-10-26T04:59:22;99458.22;;;16.42;100.00
11349;BME280;5729;43.570;27.826;2022-10-26T05:01:47;99441.47;;;16.32;100.00
11349;BME280;5729;43.570;27.826;2022-10-26T05:04:13;99459.78;;;16.46;100.00
11349;BME280;5729;43.570;27.826;2022-10-26T05:06:38;99470.22;;;16.30;100.00
11349;BME280;5729;43.570;27.826;2022-10-26T05:09:04;99464.81;;;16.41;100.00
11349;BME280;5729;43.570;27.826;2022-10-26T05:11:29;99469.50;;;16.47;100.00
11349;BME280;5729;43.570;27.826;2022-10-26T05:13:55;99469.91;;;16.56;100.00
11349;BME280;5729;43.570;27.826;2022-10-26T05:16:20;99482.75;;;16.63;100.00
11349;BME280;5729;43.570;27.826;2022-10-26T05:18:48;99480.44;;;16.68;100.00
11349;BME280;5729;43.570;27.826;2022-10-26T05:21:15;99486.66;;;16.65;100.00
11349;BME280;5729;43.570;27.826;2022-10-26T05:23:52;99485.09;;;16.72;100.00
11349;BME280;5729;43.570;27.826;2022-10-26T05:26:21;99485.13;;;16.86;100.00
11349;BME280;5729;43.570;27.826;2022-10-26T05:28:47;99486.28;;;16.81;100.00
11349;BME280;5729;43.570;27.826;2022-10-26T05:31:13;99463.28;;;16.57;100.00
11349;BME280;5729;43.570;27.826;2022-10-26T05:33:38;99487.84;;;16.79;100.00
11349;BME280;5729;43.570;27.826;2022-10-26T05:36:04;99487.44;;;16.84;100.00
11349;BME280;5729;43.570;27.826;2022-10-26T05:38:30;99491.34;;;16.93;100.00
11349;BME280;5729;43.570;27.826;2022-10-26T05:40:55;99492.09;;;16.94;100.00
11349;BME280;5729;43.570;27.826;2022-10-26T05:43:22;99487.44;;;16.98;100.00
11349;BME280;5729;43.570;27.826;2022-10-26T05:45:49;99494.47;;;16.92;100.00
11349;BME280;5729;43.570;27.826;2022-10-26T05:48:15;99500.28;;;17.04;100.00
11349;BME280;5729;43.570;27.826;2022-10-26T05:50:40;99490.19;;;17.12;100.00
11349;BME280;5729;43.570;27.826;2022-10-26T05:53:06;99490.56;;;17.25;100.00
11349;BME280;5729;43.570;27.826;2022-10-26T05:55:32;99491.72;;;17.38;100.00
11349;BME280;5729;43.570;27.826;2022-10-26T05:57:57;99499.50;;;17.47;100.00
11349;BME280;5729;43.570;27.826;2022-10-26T06:00:25;99497.94;;;17.49;100.00
11349;BME280;5729;43.570;27.826;2022-10-26T06:03:14;99493.22;;;17.53;100.00
11349;BME280;5729;43.570;27.826;2022-10-26T06:08:17;99513.47;;;17.56;100.00
11349;BME280;5729;43.570;27.826;2022-10-26T06:10:42;99515.03;;;17.57;100.00
11349;BME280;5729;43.570;27.826;2022-10-26T06:13:08;99517.41;;;17.48;100.00
11349;BME280;5729;43.570;27.826;2022-10-26T06:15:40;99519.72;;;17.53;100.00
11349;BME280;5729;43.570;27.826;2022-10-26T06:24:11;99538.00;;;17.77;100.00
11349;BME280;5729;43.570;27.826;2022-10-26T06:31:33;99553.06;;;18.21;100.00
11349;BME280;5729;43.570;27.826;2022-10-26T06:33:59;99558.47;;;18.31;100.00
11349;BME280;5729;43.570;27.826;2022-10-26T06:36:27;99560.03;;;18.29;100.00
11349;BME280;5729;43.570;27.826;2022-10-26T06:38:59;99562.44;;;18.09;100.00
11349;BME280;5729;43.570;27.826;2022-10-26T06:41:26;99556.63;;;18.00;100.00
11349;BME280;5729;43.570;27.826;2022-10-26T06:43:52;99559.38;;;18.00;100.00
11349;BME280;5729;43.570;27.826;2022-10-26T06:46:42;99558.19;;;17.97;100.00
11349;BME280;5729;43.570;27.826;2022-10-26T06:49:54;99554.28;;;18.05;100.00
11349;BME280;5729;43.570;27.826;2022-10-26T06:54:51;99559.00;;;17.94;100.00
11349;BME280;5729;43.570;27.826;2022-10-26T06:57:19;99563.25;;;17.99;100.00
11349;BME280;5729;43.570;27.826;2022-10-26T06:59:51;99556.25;;;17.98;100.00
11349;BME280;5729;43.570;27.826;2022-10-26T07:02:18;99565.22;;;17.95;100.00
11349;BME280;5729;43.570;27.826;2022-10-26T07:04:44;99553.50;;;18.05;100.00
11349;BME280;5729;43.570;27.826;2022-10-26T07:07:29;99551.53;;;18.12;100.00
11349;BME280;5729;43.570;27.826;2022-10-26T07:09:55;99548.41;;;18.14;100.00
11349;BME280;5729;43.570;27.826;2022-10-26T07:12:21;99549.16;;;18.18;100.00
11349;BME280;5729;43.570;27.826;2022-10-26T07:14:46;99548.81;;;18.12;100.00
11349;BME280;5729;43.570;27.826;2022-10-26T07:17:12;99563.56;;;18.22;100.00
11349;BME280;5729;43.570;27.826;2022-10-26T07:19:38;99562.78;;;18.25;100.00
11349;BME280;5729;43.570;27.826;2022-10-26T07:22:04;99560.81;;;18.33;100.00
11349;BME280;5729;43.570;27.826;2022-10-26T07:24:30;99563.53;;;18.29;100.00
11349;BME280;5729;43.570;27.826;2022-10-26T07:26:57;99563.13;;;18.38;100.00
11349;BME280;5729;43.570;27.826;2022-10-26T07:29:23;99571.28;;;18.48;100.00
11349;BME280;5729;43.570;27.826;2022-10-26T07:31:50;99559.91;;;18.57;100.00
11349;BME280;5729;43.570;27.826;2022-10-26T07:34:15;99561.06;;;18.67;100.00
11349;BME280;5729;43.570;27.826;2022-10-26T07:36:41;99564.38;;;18.99;100.00
11349;BME280;5729;43.570;27.826;2022-10-26T07:39:07;99559.03;;;20.49;100.00
11349;BME280;5729;43.570;27.826;2022-10-26T07:41:33;99557.22;;;22.85;100.00
11349;BME280;5729;43.570;27.826;2022-10-26T07:43:58;99556.19;;;25.36;89.72
11349;BME280;5729;43.570;27.826;2022-10-26T07:46:24;99556.28;;;27.65;66.03
11349;BME280;5729;43.570;27.826;2022-10-26T07:48:50;99563.81;;;29.12;54.07
11349;BME280;5729;43.570;27.826;2022-10-26T07:51:16;99559.69;;;30.32;50.29
11349;BME280;5729;43.570;27.826;2022-10-26T07:53:41;99565.56;;;31.54;42.28
11349;BME280;5729;43.570;27.826;2022-10-26T07:56:07;99568.84;;;32.19;41.22
11349;BME280;5729;43.570;27.826;2022-10-26T07:58:32;99574.31;;;32.65;38.97
11349;BME280;5729;43.570;27.826;2022-10-26T08:01:14;99577.19;;;32.71;37.34
11349;BME280;5729;43.570;27.826;2022-10-26T08:03:40;99572.75;;;32.59;38.85
11349;BME280;5729;43.570;27.826;2022-10-26T08:26:38;99576.09;;;29.92;42.30
11349;BME280;5729;43.570;27.826;2022-10-26T08:29:51;99588.97;;;30.04;42.69
11349;BME280;5729;43.570;27.826;2022-10-26T08:32:37;99590.16;;;29.50;43.21
11349;BME280;5729;43.570;27.826;2022-10-26T08:35:02;99570.09;;;29.70;42.99
11349;BME280;5729;43.570;27.826;2022-10-26T08:37:28;99595.41;;;29.48;43.08
11349;BME280;5729;43.570;27.826;2022-10-26T08:39:54;99600.63;;;29.22;43.95
11349;BME280;5729;43.570;27.826;2022-10-26T08:42:32;99585.69;;;29.19;42.90
11349;BME280;5729;43.570;27.826;2022-10-26T08:45:09;99595.38;;;29.72;43.15
11349;BME280;5729;43.570;27.826;2022-10-26T08:47:45;99595.84;;;29.70;42.07
11349;BME280;5729;43.570;27.826;2022-10-26T08:50:23;99597.88;;;29.70;42.43
11349;BME280;5729;43.570;27.826;2022-10-26T08:55:24;99598.28;;;30.16;41.75
11349;BME280;5729;43.570;27.826;2022-10-26T08:57:51;99595.63;;;30.21;41.96
11349;BME280;5729;43.570;27.826;2022-10-26T09:00:22;99591.53;;;30.61;40.11
11349;BME280;5729;43.570;27.826;2022-10-26T09:02:50;99595.19;;;31.17;38.58
11349;BME280;5729;43.570;27.826;2022-10-26T09:05:21;99594.03;;;31.23;38.14
11349;BME280;5729;43.570;27.826;2022-10-26T09:07:58;99596.22;;;31.74;37.55
11349;BME280;5729;43.570;27.826;2022-10-26T09:29:28;99589.13;;;35.11;31.64
11349;BME280;5729;43.570;27.826;2022-10-26T09:31:58;99591.97;;;34.49;31.67
11349;BME280;5729;43.570;27.826;2022-10-26T09:36:55;99596.03;;;34.93;30.30
11349;BME280;5729;43.570;27.826;2022-10-26T09:39:27;99588.66;;;35.81;29.29
11349;BME280;5729;43.570;27.826;2022-10-26T09:41:59;99580.25;;;34.79;30.41
11349;BME280;5729;43.570;27.826;2022-10-26T09:44:33;99584.00;;;33.44;31.50
11349;BME280;5729;43.570;27.826;2022-10-26T09:49:44;99586.16;;;33.17;32.93
11349;BME280;5729;43.570;27.826;2022-10-26T09:52:15;99589.16;;;31.99;34.63
11349;BME280;5729;43.570;27.826;2022-10-26T09:54:40;99595.06;;;30.91;34.87
11349;BME280;5729;43.570;27.826;2022-10-26T09:57:06;99588.44;;;30.29;36.89
11349;BME280;5729;43.570;27.826;2022-10-26T09:59:35;99588.59;;;29.96;38.45
11349;BME280;5729;43.570;27.826;2022-10-26T10:02:38;99595.84;;;30.47;38.43
11349;BME280;5729;43.570;27.826;2022-10-26T10:07:50;99595.84;;;29.94;38.09
11349;BME280;5729;43.570;27.826;2022-10-26T10:10:16;99599.72;;;29.49;38.29
11349;BME280;5729;43.570;27.826;2022-10-26T10:12:43;99602.22;;;28.63;40.12
11349;BME280;5729;43.570;27.826;2022-10-26T10:15:21;99597.97;;;28.16;41.19
11349;BME280;5729;43.570;27.826;2022-10-26T10:17:51;99602.91;;;27.85;42.32
11349;BME280;5729;43.570;27.826;2022-10-26T10:20:26;99604.44;;;28.40;42.21
11349;BME280;5729;43.570;27.826;2022-10-26T10:22:56;99579.22;;;27.83;41.27
11349;BME280;5729;43.570;27.826;2022-10-26T10:25:36;99598.91;;;27.86;42.81
11349;BME280;5729;43.570;27.826;2022-10-26T10:28:19;99594.75;;;28.08;41.82
11349;BME280;5729;43.570;27.826;2022-10-26T10:37:29;99596.91;;;28.32;39.75
11349;BME280;5729;43.570;27.826;2022-10-26T10:39:58;99587.44;;;29.41;39.21
11349;BME280;5729;43.570;27.826;2022-10-26T10:42:36;99588.53;;;30.35;36.94
11349;BME280;5729;43.570;27.826;2022-10-26T10:45:04;99589.09;;;31.53;36.23
11349;BME280;5729;43.570;27.826;2022-10-26T10:47:33;99586.16;;;32.03;33.97
11349;BME280;5729;43.570;27.826;2022-10-26T10:52:29;99599.84;;;30.90;33.87
11349;BME280;5729;43.570;27.826;2022-10-26T10:55:08;99589.66;;;29.99;35.23
11349;BME280;5729;43.570;27.826;2022-10-26T11:00:10;99593.09;;;29.70;35.07
11349;BME280;5729;43.570;27.826;2022-10-26T11:05:47;99584.66;;;32.85;30.52
11349;BME280;5729;43.570;27.826;2022-10-26T11:08:25;99586.53;;;33.96;28.66
11349;BME280;5729;43.570;27.826;2022-10-26T11:11:20;99582.06;;;33.61;29.07
11349;BME280;5729;43.570;27.826;2022-10-26T11:14:04;99586.03;;;34.08;28.24
11349;BME280;5729;43.570;27.826;2022-10-26T11:16:47;99574.41;;;34.27;27.22
11349;BME280;5729;43.570;27.826;2022-10-26T11:19:24;99585.06;;;34.67;27.78
11349;BME280;5729;43.570;27.826;2022-10-26T11:21:53;99577.88;;;33.99;28.20
11349;BME280;5729;43.570;27.826;2022-10-26T11:24:26;99576.38;;;34.15;28.55
11349;BME280;5729;43.570;27.826;2022-10-26T11:29:42;99581.03;;;34.79;25.81
11349;BME280;5729;43.570;27.826;2022-10-26T11:34:45;99587.13;;;34.61;26.61
11349;BME280;5729;43.570;27.826;2022-10-26T11:39:51;99589.81;;;34.00;27.12
11349;BME280;5729;43.570;27.826;2022-10-26T11:42:31;99582.50;;;34.19;26.86
11349;BME280;5729;43.570;27.826;2022-10-26T11:47:49;99599.34;;;34.52;26.34
11349;BME280;5729;43.570;27.826;2022-10-26T11:50:22;99583.06;;;34.51;26.26
11349;BME280;5729;43.570;27.826;2022-10-26T11:53:11;99576.63;;;34.22;25.58
11349;BME280;5729;43.570;27.826;2022-10-26T11:55:39;99581.44;;;34.00;26.22
11349;BME280;5729;43.570;27.826;2022-10-26T11:58:08;99589.19;;;33.68;26.18
11349;BME280;5729;43.570;27.826;2022-10-26T12:00:42;99582.28;;;33.58;25.52
11349;BME280;5729;43.570;27.826;2022-10-26T12:03:12;99584.09;;;33.66;26.76
11349;BME280;5729;43.570;27.826;2022-10-26T12:08:11;99586.47;;;33.31;28.38
11349;BME280;5729;43.570;27.826;2022-10-26T12:10:40;99583.72;;;32.99;28.16
11349;BME280;5729;43.570;27.826;2022-10-26T12:13:27;99585.31;;;32.74;28.87
11349;BME280;5729;43.570;27.826;2022-10-26T12:18:41;99585.53;;;33.39;27.34
11349;BME280;5729;43.570;27.826;2022-10-26T12:21:09;99575.50;;;31.61;29.35
11349;BME280;5729;43.570;27.826;2022-10-26T12:23:38;99587.72;;;30.93;30.63
11349;BME280;5729;43.570;27.826;2022-10-26T12:34:01;99571.94;;;31.20;31.13
11349;BME280;5729;43.570;27.826;2022-10-26T12:36:52;99578.91;;;31.10;30.62
11349;BME280;5729;43.570;27.826;2022-10-26T12:39:40;99574.47;;;31.58;29.90
11349;BME280;5729;43.570;27.826;2022-10-26T12:58:06;99594.38;;;31.51;28.95
11349;BME280;5729;43.570;27.826;2022-10-26T13:00:41;99581.84;;;31.06;29.48
11349;BME280;5729;43.570;27.826;2022-10-26T13:03:24;99597.56;;;30.59;30.21
11349;BME280;5729;43.570;27.826;2022-10-26T13:08:47;99602.66;;;29.12;31.56
11349;BME280;5729;43.570;27.826;2022-10-26T13:14:02;99602.59;;;28.37;32.70
11349;BME280;5729;43.570;27.826;2022-10-26T13:16:28;99606.41;;;27.67;33.55
11349;BME280;5729;43.570;27.826;2022-10-26T13:18:55;99605.19;;;27.09;34.29
11349;BME280;5729;43.570;27.826;2022-10-26T13:21:22;99595.94;;;26.72;35.12
11349;BME280;5729;43.570;27.826;2022-10-26T13:26:25;99610.88;;;26.31;36.37
11349;BME280;5729;43.570;27.826;2022-10-26T13:36:37;99620.94;;;25.69;38.31
11349;BME280;5729;43.570;27.826;2022-10-26T13:39:09;99617.97;;;25.51;39.88
11349;BME280;5729;43.570;27.826;2022-10-26T13:41:38;99624.91;;;25.55;39.38
11349;BME280;5729;43.570;27.826;2022-10-26T13:44:06;99617.13;;;25.16;40.22
11349;BME280;5729;43.570;27.826;2022-10-26T13:46:37;99630.59;;;25.26;40.89
11349;BME280;5729;43.570;27.826;2022-10-26T13:49:13;99621.22;;;25.11;41.10
11349;BME280;5729;43.570;27.826;2022-10-26T13:51:49;99604.22;;;25.00;41.20
11349;BME280;5729;43.570;27.826;2022-10-26T13:54:22;99627.94;;;25.10;41.06
11349;BME280;5729;43.570;27.826;2022-10-26T13:59:43;99638.56;;;24.57;41.39
11349;BME280;5729;43.570;27.826;2022-10-26T14:04:51;99640.25;;;23.94;43.96
11349;BME280;5729;43.570;27.826;2022-10-26T14:07:19;99634.94;;;23.86;43.51
11349;BME280;5729;43.570;27.826;2022-10-26T14:09:55;99637.38;;;23.68;44.75
11349;BME280;5729;43.570;27.826;2022-10-26T14:12:21;99631.34;;;23.73;44.87
11349;BME280;5729;43.570;27.826;2022-10-26T14:14:48;99631.88;;;23.68;44.94
11349;BME280;5729;43.570;27.826;2022-10-26T14:17:19;99634.44;;;23.59;45.56
11349;BME280;5729;43.570;27.826;2022-10-26T14:19:45;99634.78;;;23.45;46.03
11349;BME280;5729;43.570;27.826;2022-10-26T14:22:24;99631.34;;;23.41;45.33
11349;BME280;5729;43.570;27.826;2022-10-26T14:24:59;99645.09;;;23.41;46.19
11349;BME280;5729;43.570;27.826;2022-10-26T14:27:32;99636.34;;;23.46;46.24
11349;BME280;5729;43.570;27.826;2022-10-26T14:29:58;99643.66;;;23.36;47.05
11349;BME280;5729;43.570;27.826;2022-10-26T14:32:30;99639.66;;;23.37;46.71
11349;BME280;5729;43.570;27.826;2022-10-26T14:35:00;99642.59;;;23.30;47.53
11349;BME280;5729;43.570;27.826;2022-10-26T14:38:06;99640.09;;;23.20;48.00
11349;BME280;5729;43.570;27.826;2022-10-26T14:40:33;99638.53;;;23.18;48.91
11349;BME280;5729;43.570;27.826;2022-10-26T14:43:01;99644.13;;;23.15;49.53
11349;BME280;5729;43.570;27.826;2022-10-26T14:45:35;99649.19;;;23.00;50.88
11349;BME280;5729;43.570;27.826;2022-10-26T14:48:04;99636.50;;;22.87;51.07
11349;BME280;5729;43.570;27.826;2022-10-26T14:50:30;99655.47;;;22.81;52.13
11349;BME280;5729;43.570;27.826;2022-10-26T14:53:03;99655.66;;;22.70;53.88
11349;BME280;5729;43.570;27.826;2022-10-26T14:55:50;99651.56;;;22.59;55.57
11349;BME280;5729;43.570;27.826;2022-10-26T14:58:25;99649.13;;;22.44;56.43
11349;BME280;5729;43.570;27.826;2022-10-26T15:01:30;99656.31;;;22.38;58.24
11349;BME280;5729;43.570;27.826;2022-10-26T15:04:04;99655.88;;;22.20;60.22
11349;BME280;5729;43.570;27.826;2022-10-26T15:06:33;99657.47;;;22.18;61.08
11349;BME280;5729;43.570;27.826;2022-10-26T15:09:01;99665.97;;;22.03;61.76
11349;BME280;5729;43.570;27.826;2022-10-26T15:11:30;99672.75;;;21.95;63.19
11349;BME280;5729;43.570;27.826;2022-10-26T15:13:57;99665.91;;;21.84;62.36
11349;BME280;5729;43.570;27.826;2022-10-26T15:16:37;99672.34;;;21.73;63.84
11349;BME280;5729;43.570;27.826;2022-10-26T15:19:14;99668.16;;;21.65;64.69
11349;BME280;5729;43.570;27.826;2022-10-26T15:21:47;99668.78;;;21.50;66.71
11349;BME280;5729;43.570;27.826;2022-10-26T15:24:30;99681.31;;;21.51;68.02
11349;BME280;5729;43.570;27.826;2022-10-26T15:26:56;99678.69;;;21.44;69.77
11349;BME280;5729;43.570;27.826;2022-10-26T15:29:45;99683.91;;;21.34;69.34
11349;BME280;5729;43.570;27.826;2022-10-26T15:32:27;99692.28;;;21.24;73.66
11349;BME280;5729;43.570;27.826;2022-10-26T15:37:45;99688.56;;;21.07;75.66
11349;BME280;5729;43.570;27.826;2022-10-26T15:40:11;99680.56;;;20.89;76.87
11349;BME280;5729;43.570;27.826;2022-10-26T15:42:39;99702.00;;;20.98;79.07
11349;BME280;5729;43.570;27.826;2022-10-26T15:45:14;99697.72;;;20.97;80.66
11349;BME280;5729;43.570;27.826;2022-10-26T15:47:41;99693.84;;;20.94;77.30
11349;BME280;5729;43.570;27.826;2022-10-26T15:50:12;99698.53;;;20.94;76.65
11349;BME280;5729;43.570;27.826;2022-10-26T15:52:37;99700.91;;;20.92;75.19